KMBL/MBL METAR and TAF weather

Enter ICAO airport designator
Station Type Date Time Source
KMBL METAR 2019/10/18 10:56 UTC NOAA

KMBL 181056Z AUTO 09003KT 10SM FEW002 OVC034 01/01 A3008 RMK AO2 SLP192 T00110011 FZRANO


Station Type Date Time Source
KMBL Decoded METAR 2019/10/18 10:56 UTC NOAA

Manistee, Manistee County-Blacker Airport, MI, United States (KMBL) 44-16N 086-15W
Oct 18, 2019 - 06:56 AM EDT / 2019.10.18 1056 UTC
Wind: from the E (090 degrees) at 3 MPH (3 KT):0
Visibility: 10 mile(s):0
Sky conditions: overcast
Temperature: 34.0 F (1.1 C)
Dew Point: 34.0 F (1.1 C)
Relative Humidity: 100%
Pressure (altimeter): 30.08 in. Hg (1018 hPa)
ob: KMBL 181056Z AUTO 09003KT 10SM FEW002 OVC034 01/01 A3008 RMK AO2 SLP192 T00110011 FZRANO
cycle: 11

Station Type Date Time Source
KMBL TAF 2019/10/18 07:21 UTC NOAA

TAF
AMD KMBL 180719Z 1807/1906 00000KT 5SM BR BKN035
TEMPO 1807/1811 1SM BR VV001
FM181100 VRB03KT P6SM SCT040
FM181400 16005KT P6SM SCT150
FM181900 18007KT P6SM SCT250
FM190000 15005KT P6SM SCT250

Example: see airport list